createdAt,value
2018-08-03T00:03:39.053Z,83.70
2018-08-03T00:08:34.231Z,84.80
2018-08-03T00:13:29.358Z,85.70
2018-08-03T00:18:24.439Z,86.40
2018-08-03T00:23:19.246Z,87.40
2018-08-03T00:28:13.792Z,88.10
2018-08-03T00:33:08.291Z,89.30
2018-08-03T00:38:02.792Z,90.10
2018-08-03T00:42:57.382Z,90.80
2018-08-03T00:47:52.193Z,91.00
2018-08-03T00:52:47.472Z,91.60
2018-08-03T00:57:42.109Z,92.30
2018-08-03T01:02:36.742Z,92.80
2018-08-03T01:07:31.250Z,93.40
2018-08-03T01:12:25.928Z,94.00
2018-08-03T01:17:20.566Z,94.60
2018-08-03T01:22:16.454Z,94.90
2018-08-03T01:27:11.332Z,95.40
2018-08-03T01:32:05.952Z,96.10
2018-08-03T01:37:00.671Z,96.50
2018-08-03T01:41:55.330Z,97.00
2018-08-03T01:46:50.135Z,97.90
2018-08-03T01:51:44.733Z,98.20
2018-08-03T01:56:39.255Z,98.80
2018-08-03T02:01:34.022Z,99.30
2018-08-03T02:06:29.074Z,99.90
2018-08-03T02:11:23.587Z,99.90
2018-08-03T02:16:18.064Z,99.90
2018-08-03T02:21:12.617Z,99.90
2018-08-03T02:26:07.112Z,99.90
2018-08-03T02:31:01.591Z,99.90
2018-08-03T02:35:56.680Z,99.90
2018-08-03T02:40:51.167Z,99.90
2018-08-03T02:45:45.674Z,99.90
2018-08-03T02:50:40.160Z,99.90
2018-08-03T02:55:34.689Z,99.90
2018-08-03T03:00:29.138Z,99.90
2018-08-03T03:05:23.697Z,99.90
2018-08-03T03:10:18.308Z,99.90
2018-08-03T03:15:12.836Z,99.90
2018-08-03T03:20:07.342Z,99.90
2018-08-03T03:25:01.910Z,99.90
2018-08-03T03:29:56.881Z,99.90
2018-08-03T03:34:51.552Z,99.90
2018-08-03T03:39:46.054Z,99.90
2018-08-03T03:44:40.571Z,99.90
2018-08-03T03:49:35.147Z,99.90
2018-08-03T03:54:30.023Z,99.90
2018-08-03T03:59:25.072Z,99.90
2018-08-03T04:04:19.573Z,99.90
2018-08-03T04:09:14.341Z,99.90
2018-08-03T04:14:09.053Z,99.90
2018-08-03T04:19:03.535Z,99.90
2018-08-03T04:23:58.192Z,99.90
2018-08-03T04:28:52.778Z,99.90
2018-08-03T04:33:47.841Z,99.90
2018-08-03T04:38:42.676Z,99.90
2018-08-03T04:43:37.503Z,99.90
2018-08-03T04:48:32.337Z,99.90
2018-08-03T04:53:27.720Z,99.90
2018-08-03T04:58:22.243Z,99.90
2018-08-03T05:03:16.796Z,99.90
2018-08-03T05:08:11.405Z,99.90
2018-08-03T05:13:05.982Z,99.90
2018-08-03T05:18:00.520Z,99.90
2018-08-03T05:22:55.297Z,99.90
2018-08-03T05:27:49.971Z,99.90
2018-08-03T05:32:44.484Z,99.90
2018-08-03T05:37:39.091Z,99.90
2018-08-03T05:42:33.692Z,99.80
2018-08-03T05:47:28.362Z,95.20
2018-08-03T05:52:23.195Z,86.60
2018-08-03T05:57:18.449Z,72.90
2018-08-03T06:02:14.378Z,60.20
2018-08-03T06:07:09.887Z,53.10
2018-08-03T06:12:05.311Z,47.90
2018-08-03T06:17:07.042Z,43.40
2018-08-03T06:22:01.964Z,40.40
2018-08-03T06:26:56.767Z,37.20
2018-08-03T06:31:53.758Z,33.80
2018-08-03T06:36:48.565Z,31.70
2018-08-03T06:41:43.708Z,29.80
2018-08-03T06:46:39.766Z,28.40
2018-08-03T06:51:34.566Z,27.00
2018-08-03T06:56:29.804Z,25.90
2018-08-03T07:01:24.912Z,24.60
2018-08-03T07:06:21.758Z,23.90
2018-08-03T07:11:16.607Z,23.20
2018-08-03T07:16:15.687Z,22.50
2018-08-03T07:21:12.481Z,22.00
2018-08-03T07:26:07.536Z,21.70
2018-08-03T07:31:02.453Z,21.10
2018-08-03T07:35:58.036Z,20.30
2018-08-03T07:40:53.760Z,19.40
2018-08-03T07:45:49.099Z,18.60
2018-08-03T07:50:43.977Z,18.20
2018-08-03T07:55:38.704Z,17.80
2018-08-03T08:00:33.492Z,17.10
2018-08-03T08:05:28.474Z,16.60
2018-08-03T08:10:23.267Z,16.40
2018-08-03T08:15:18.063Z,16.50
2018-08-03T08:20:13.501Z,16.30
2018-08-03T08:25:08.672Z,16.10
2018-08-03T08:30:03.404Z,15.70
2018-08-03T08:34:58.270Z,15.40
2018-08-03T08:39:53.646Z,14.60
2018-08-03T08:44:48.462Z,14.10
2018-08-03T08:49:43.388Z,14.00
2018-08-03T08:54:38.148Z,13.70
2018-08-03T08:59:33.111Z,13.70
2018-08-03T09:04:28.097Z,13.70
2018-08-03T09:09:22.974Z,14.30
2018-08-03T09:14:17.799Z,14.00
2018-08-03T09:19:12.955Z,13.60
2018-08-03T09:24:07.710Z,13.60
2018-08-03T09:29:02.440Z,13.60
2018-08-03T09:33:57.262Z,13.20
2018-08-03T09:38:52.196Z,13.30
2018-08-03T09:43:47.272Z,13.80
2018-08-03T09:48:42.146Z,13.80
2018-08-03T09:53:37.003Z,14.30
2018-08-03T09:58:31.857Z,14.50
2018-08-03T10:03:26.648Z,16.00
2018-08-03T10:08:21.601Z,18.10
2018-08-03T10:13:17.098Z,21.60
2018-08-03T10:18:12.298Z,23.90
2018-08-03T10:23:07.281Z,26.90
2018-08-03T10:28:02.034Z,28.80
2018-08-03T10:32:57.006Z,30.60
2018-08-03T10:37:52.406Z,31.30
2018-08-03T10:42:47.222Z,33.60
2018-08-03T10:47:42.316Z,34.20
2018-08-03T10:52:37.052Z,33.60
2018-08-03T10:57:32.156Z,34.20
2018-08-03T11:02:27.130Z,34.50
2018-08-03T11:07:22.194Z,35.10
2018-08-03T11:12:17.051Z,34.90
2018-08-03T11:17:12.361Z,34.30
2018-08-03T11:22:07.301Z,34.90
2018-08-03T11:27:02.102Z,35.60
2018-08-03T11:31:56.960Z,35.20
2018-08-03T11:36:51.701Z,35.50
2018-08-03T11:41:46.453Z,35.60
2018-08-03T11:46:41.327Z,34.90
2018-08-03T11:51:36.159Z,35.20
2018-08-03T11:56:30.977Z,35.20
2018-08-03T12:01:25.899Z,34.80
2018-08-03T12:06:20.705Z,34.60
2018-08-03T12:11:15.573Z,34.30
2018-08-03T12:16:10.490Z,34.30
2018-08-03T12:21:05.325Z,34.40
2018-08-03T12:26:00.421Z,34.10
2018-08-03T12:30:55.344Z,34.00
2018-08-03T12:35:50.114Z,33.50
2018-08-03T12:40:45.041Z,34.40
2018-08-03T12:45:39.842Z,34.10
2018-08-03T12:50:34.593Z,34.30
2018-08-03T12:55:30.388Z,34.20
2018-08-03T13:00:25.161Z,33.80
2018-08-03T13:05:19.947Z,33.30
2018-08-03T13:10:14.699Z,33.20
2018-08-03T13:15:10.085Z,33.30
2018-08-03T13:20:05.126Z,32.70
2018-08-03T13:25:00.055Z,31.20
2018-08-03T13:29:54.824Z,31.00
2018-08-03T13:34:49.602Z,30.70
2018-08-03T13:39:44.360Z,30.20
2018-08-03T13:44:39.403Z,30.20
2018-08-03T13:49:34.358Z,30.40
2018-08-03T13:54:29.254Z,30.60
2018-08-03T13:59:24.370Z,30.40
2018-08-03T14:04:19.238Z,30.00
2018-08-03T14:09:14.309Z,30.70
2018-08-03T14:14:09.657Z,30.50
2018-08-03T14:19:04.430Z,30.70
2018-08-03T14:23:59.233Z,30.40
2018-08-03T14:28:54.053Z,30.00
2018-08-03T14:33:48.829Z,29.90
2018-08-03T14:38:43.910Z,29.60
2018-08-03T14:43:38.928Z,29.30
2018-08-03T14:48:33.728Z,29.40
2018-08-03T14:53:29.558Z,29.00
2018-08-03T14:58:25.586Z,29.30
2018-08-03T15:03:21.527Z,28.60
2018-08-03T15:08:17.880Z,28.50
2018-08-03T15:13:14.022Z,28.30
2018-08-03T15:18:13.232Z,28.60
2018-08-03T15:23:09.920Z,29.10
2018-08-03T15:28:05.832Z,29.10
2018-08-03T15:33:05.678Z,29.90
2018-08-03T15:38:01.918Z,30.40
2018-08-03T15:42:58.161Z,30.60
2018-08-03T15:47:53.892Z,30.80
2018-08-03T15:52:49.286Z,30.40
2018-08-03T15:57:44.510Z,30.40
2018-08-03T16:02:39.271Z,30.70
2018-08-03T16:07:34.194Z,31.10
2018-08-03T16:12:28.954Z,30.90
2018-08-03T16:17:23.758Z,30.80
2018-08-03T16:22:18.526Z,30.60
2018-08-03T16:27:13.298Z,31.50
2018-08-03T16:32:08.552Z,31.60
2018-08-03T16:37:03.731Z,32.30
2018-08-03T16:41:58.751Z,31.80
2018-08-03T16:46:54.000Z,32.00
2018-08-03T16:51:48.760Z,31.80
2018-08-03T16:56:43.520Z,32.10
2018-08-03T17:01:38.309Z,32.00
2018-08-03T17:06:33.714Z,31.90
2018-08-03T17:11:28.595Z,31.90
2018-08-03T17:16:23.416Z,32.10
2018-08-03T17:21:18.574Z,32.10
2018-08-03T17:26:15.647Z,32.60
2018-08-03T17:31:10.398Z,32.40
2018-08-03T17:36:05.870Z,32.70
2018-08-03T17:41:01.441Z,33.10
2018-08-03T17:45:56.629Z,33.20
2018-08-03T17:50:51.377Z,33.50
2018-08-03T17:55:46.713Z,33.60
2018-08-03T18:00:41.553Z,33.70
2018-08-03T18:05:37.195Z,34.00
2018-08-03T18:10:32.002Z,33.70
2018-08-03T18:15:27.476Z,33.90
2018-08-03T18:20:22.338Z,34.20
2018-08-03T18:25:17.580Z,34.80
2018-08-03T18:30:13.796Z,35.90
2018-08-03T18:35:09.160Z,36.90
2018-08-03T18:40:04.476Z,37.90
2018-08-03T18:45:00.326Z,38.80
2018-08-03T18:49:55.293Z,39.40
2018-08-03T18:54:50.858Z,40.00
2018-08-03T18:59:45.724Z,40.60
2018-08-03T19:04:41.132Z,41.00
2018-08-03T19:09:35.930Z,41.20
2018-08-03T19:14:31.434Z,41.70
2018-08-03T19:19:26.552Z,41.90
2018-08-03T19:24:22.184Z,42.30
2018-08-03T19:29:16.958Z,43.20
2018-08-03T19:34:11.739Z,44.50
2018-08-03T19:39:10.292Z,45.20
2018-08-03T19:44:05.351Z,45.30
2018-08-03T19:49:00.083Z,45.30
2018-08-03T19:53:54.838Z,45.50
2018-08-03T19:58:50.140Z,45.90
2018-08-03T20:03:45.064Z,46.60
2018-08-03T20:08:40.170Z,46.80
2018-08-03T20:13:34.928Z,47.40
2018-08-03T20:18:30.027Z,47.90
2018-08-03T20:23:24.946Z,47.90
2018-08-03T20:28:19.759Z,48.00
2018-08-03T20:33:14.748Z,48.20
2018-08-03T20:38:09.488Z,48.70
2018-08-03T20:43:04.285Z,49.00
2018-08-03T20:47:59.525Z,49.10
2018-08-03T20:52:54.305Z,49.40
2018-08-03T20:57:49.128Z,49.80
2018-08-03T21:02:43.874Z,50.40
2018-08-03T21:07:38.942Z,50.70
2018-08-03T21:12:33.939Z,50.90
2018-08-03T21:17:30.748Z,51.30
2018-08-03T21:22:25.611Z,51.60
2018-08-03T21:27:26.949Z,52.10
2018-08-03T21:32:21.937Z,52.30
2018-08-03T21:37:16.705Z,52.70
2018-08-03T21:42:11.521Z,52.90
2018-08-03T21:47:06.301Z,53.60
2018-08-03T21:52:01.269Z,53.60
2018-08-03T21:56:56.048Z,53.90
2018-08-03T22:01:51.376Z,54.00
2018-08-03T22:06:46.173Z,54.30
2018-08-03T22:11:41.050Z,55.10
2018-08-03T22:16:35.830Z,55.60
2018-08-03T22:21:30.609Z,56.30
2018-08-03T22:26:25.343Z,56.50
2018-08-03T22:31:20.400Z,56.70
2018-08-03T22:36:15.136Z,56.70
2018-08-03T22:41:10.736Z,57.20
2018-08-03T22:46:05.506Z,57.50
2018-08-03T22:51:00.799Z,58.30
2018-08-03T22:55:56.547Z,58.60
2018-08-03T23:00:51.344Z,59.10
2018-08-03T23:05:46.135Z,60.20
2018-08-03T23:10:40.928Z,61.20
2018-08-03T23:15:35.794Z,61.80
2018-08-03T23:20:30.307Z,62.80
2018-08-03T23:25:24.774Z,63.80
2018-08-03T23:30:19.713Z,64.90
2018-08-03T23:35:14.187Z,65.40
2018-08-03T23:40:08.746Z,65.90
2018-08-03T23:45:03.656Z,66.10
2018-08-03T23:49:58.274Z,66.40
2018-08-03T23:54:53.142Z,66.30
2018-08-03T23:59:47.659Z,66.40
